Gardner, Nebraska
Current Conditions -  °F | °C
As of 8:55 PM on Sunday 21 Dec 2014 (Local Time) from KEAR Reporting Station
Overcast Overcast  
Wind Chill: 31°   Ceiling: 600
Heat Index: 39°   Visibility: 9mi
Dew Point: 37°   Wind: 15mph
Humidity: 93%   Direction: 160°SSE
Pressure: 29.54"   Gusts: NA
Location:  40.7619°N, 99.1445°W
Report Text: KEAR 220255Z 16013KT 9SM OVC006 04/03 A2954 RMK AO1 57010
Loading
Personal Weather Stations






























Interactive Weather Map New forecast layout! Learn more

10-Day Weather Forecast

Advertisements
Track Severe Weather on mobile